Time;durP1;ratioP1;P1;durP2;ratioP2;P2;SDS_P1;SDS_P2;PMS_P1;PMS_P2;Temp;Humidity;BMP_temperature;BMP_pressure;BME280_temperature;BME280_humidity;BME280_pressure;Samples;Min_cycle;Max_cycle;Signal;HPM_P1;HPM_P2
2021/09/15 00:01:26;;;;;;;9.00;6.70;;;;;;;18.75;100.00;98781.75;5041227;28;20041;-82
2021/09/15 00:03:54;;;;;;;8.82;6.65;;;;;;;18.65;100.00;98767.84;5039559;28;20041;-82
2021/09/15 00:06:21;;;;;;;8.18;6.40;;;;;;;18.75;100.00;98773.50;5034151;28;20111;-82
2021/09/15 00:08:48;;;;;;;9.88;6.40;;;;;;;18.74;100.00;98771.00;5034438;28;20367;-82
2021/09/15 00:11:17;;;;;;;8.52;7.40;;;;;;;18.80;100.00;98775.50;5039834;28;20408;-82
2021/09/15 00:13:45;;;;;;;9.85;7.20;;;;;;;18.83;100.00;98779.69;5053515;28;20445;-82
2021/09/15 00:16:12;;;;;;;7.72;6.65;;;;;;;18.90;100.00;98781.22;5053651;28;20049;-82
2021/09/15 00:18:40;;;;;;;8.05;6.70;;;;;;;18.82;100.00;98758.72;5053861;28;20063;-83
2021/09/15 00:21:07;;;;;;;13.48;7.13;;;;;;;18.87;100.00;98751.44;5053855;28;20492;-83
2021/09/15 00:23:34;;;;;;;12.10;7.47;;;;;;;18.88;100.00;98755.03;5053750;28;20060;-82
2021/09/15 00:26:01;;;;;;;7.75;6.40;;;;;;;18.83;100.00;98757.66;5050771;28;20060;-82
2021/09/15 00:28:28;;;;;;;8.85;6.90;;;;;;;18.75;100.00;98768.00;5049633;28;20544;-82
2021/09/15 00:30:54;;;;;;;8.70;7.18;;;;;;;18.72;100.00;98756.66;5054150;28;20080;-82
2021/09/15 00:33:21;;;;;;;8.07;6.15;;;;;;;18.75;100.00;98759.72;5053517;28;20048;-82
2021/09/15 00:35:50;;;;;;;8.48;6.20;;;;;;;18.91;100.00;98752.63;5033922;28;20048;-82
2021/09/15 00:38:17;;;;;;;9.93;7.57;;;;;;;18.93;100.00;98747.69;5033636;28;20045;-82
2021/09/15 00:40:44;;;;;;;11.95;6.57;;;;;;;18.86;100.00;98751.69;5033622;28;20081;-82
2021/09/15 00:43:11;;;;;;;16.17;7.85;;;;;;;18.77;100.00;98753.16;5033013;28;20391;-82
2021/09/15 00:45:38;;;;;;;11.57;7.45;;;;;;;18.76;100.00;98766.09;5035536;28;20059;-82
2021/09/15 00:48:05;;;;;;;11.13;7.13;;;;;;;18.67;100.00;98737.31;5033348;28;20049;-82
2021/09/15 00:50:32;;;;;;;10.60;7.45;;;;;;;18.74;100.00;98749.81;5033416;28;20493;-82
2021/09/15 00:53:02;;;;;;;8.07;7.20;;;;;;;18.81;100.00;98760.66;5033389;28;20061;-82
2021/09/15 00:55:31;;;;;;;14.15;6.85;;;;;;;18.73;100.00;98739.88;5032984;28;20493;-83
2021/09/15 00:57:58;;;;;;;8.65;7.05;;;;;;;18.72;100.00;98740.13;5033124;28;20464;-82
2021/09/15 01:00:37;;;;;;;9.50;7.10;;;;;;;18.68;100.00;98752.72;5033006;28;20063;-83
2021/09/15 01:03:04;;;;;;;11.05;7.30;;;;;;;18.62;100.00;98751.78;5043142;28;20583;-82
2021/09/15 01:05:31;;;;;;;8.93;8.02;;;;;;;18.64;100.00;98746.03;5052626;28;20045;-83
2021/09/15 01:07:59;;;;;;;10.77;7.00;;;;;;;18.68;100.00;98745.31;5046413;28;20409;-82
2021/09/15 01:10:31;;;;;;;7.55;6.72;;;;;;;18.85;100.00;98744.50;5042085;28;20045;-82
2021/09/15 01:13:00;;;;;;;14.98;6.80;;;;;;;18.75;100.00;98726.69;5035990;28;20406;-82
2021/09/15 01:15:27;;;;;;;9.48;6.97;;;;;;;18.72;100.00;98740.13;5038602;28;20491;-82
2021/09/15 01:17:54;;;;;;;8.32;6.90;;;;;;;18.68;100.00;98750.81;5039280;28;20420;-83
2021/09/15 01:20:21;;;;;;;9.35;7.05;;;;;;;18.73;100.00;98753.66;5040428;28;20045;-83
2021/09/15 01:22:49;;;;;;;10.00;7.28;;;;;;;18.77;100.00;98742.97;5052575;28;20446;-82
2021/09/15 01:25:18;;;;;;;10.25;7.00;;;;;;;18.84;100.00;98742.81;5041068;28;20051;-82
2021/09/15 01:27:45;;;;;;;9.23;7.88;;;;;;;18.72;100.00;98734.63;5034239;28;20077;-82
2021/09/15 01:30:12;;;;;;;9.63;7.80;;;;;;;18.75;100.00;98728.63;5032783;28;20072;-83
2021/09/15 01:32:39;;;;;;;9.85;7.18;;;;;;;18.67;100.00;98707.84;5032741;28;20413;-82
2021/09/15 01:35:07;;;;;;;12.35;8.07;;;;;;;18.77;100.00;98711.84;5031623;28;20056;-82
2021/09/15 01:37:34;;;;;;;12.18;8.73;;;;;;;18.77;100.00;98709.09;5034505;28;20053;-82
2021/09/15 01:40:02;;;;;;;14.98;9.18;;;;;;;18.66;100.00;98716.34;5052167;28;20485;-83
2021/09/15 01:42:29;;;;;;;14.23;8.63;;;;;;;18.65;100.00;98709.16;5051939;28;20045;-82
2021/09/15 01:44:56;;;;;;;12.02;8.43;;;;;;;18.73;100.00;98723.38;5038789;28;20065;-82
2021/09/15 01:47:23;;;;;;;12.75;8.43;;;;;;;18.81;100.00;98713.84;5034788;28;20409;-82
2021/09/15 01:49:50;;;;;;;13.35;7.95;;;;;;;18.72;100.00;98696.06;5035782;28;20451;-82
2021/09/15 01:52:18;;;;;;;9.80;7.78;;;;;;;18.70;100.00;98715.59;5032942;28;20056;-82
2021/09/15 01:54:45;;;;;;;17.65;8.48;;;;;;;18.74;100.00;98722.28;5051961;28;20098;-82
2021/09/15 01:57:14;;;;;;;9.88;8.13;;;;;;;18.72;100.00;98701.59;5051274;28;20385;-82
2021/09/15 01:59:41;;;;;;;9.13;7.88;;;;;;;18.65;100.00;98701.75;5038915;28;20504;-82
2021/09/15 02:02:11;;;;;;;12.20;8.43;;;;;;;18.72;100.00;98716.19;5034080;28;20523;-82
2021/09/15 02:04:37;;;;;;;;;;;;;;;18.78;100.00;98706.09;5035437;28;20154;-82
2021/09/15 02:07:05;;;;;;;12.45;8.07;;;;;;;18.56;100.00;98678.44;5035741;28;19928;-82
2021/09/15 02:09:32;;;;;;;10.00;7.35;;;;;;;18.71;100.00;98695.25;5031779;28;20049;-82
2021/09/15 02:11:59;;;;;;;10.52;8.07;;;;;;;18.61;100.00;98675.81;5032365;28;20053;-82
2021/09/15 02:14:27;;;;;;;9.45;7.30;;;;;;;18.63;100.00;98681.88;5038801;28;20111;-82
2021/09/15 02:16:55;;;;;;;10.52;8.00;;;;;;;18.68;100.00;98692.16;5036802;28;20045;-82
2021/09/15 02:19:22;;;;;;;11.02;8.30;;;;;;;18.57;100.00;98671.88;5033202;28;20037;-82
2021/09/15 02:21:49;;;;;;;13.68;7.10;;;;;;;18.80;100.00;98690.13;5033036;28;20049;-82
2021/09/15 02:24:17;;;;;;;10.25;7.20;;;;;;;18.75;100.00;98688.13;5028914;28;20099;-82
2021/09/15 02:26:44;;;;;;;10.35;6.82;;;;;;;18.70;100.00;98667.97;5042562;28;20068;-82
2021/09/15 02:29:11;;;;;;;13.00;6.60;;;;;;;18.75;100.00;98668.88;5051469;28;20056;-82
2021/09/15 02:31:39;;;;;;;12.07;7.00;;;;;;;18.82;100.00;98688.00;5043127;28;20049;-82
2021/09/15 02:34:10;;;;;;;9.75;6.00;;;;;;;18.82;100.00;98688.00;5042164;28;20045;-82
2021/09/15 02:36:36;;;;;;;8.82;6.45;;;;;;;18.74;100.00;98686.50;5051241;28;20511;-82
2021/09/15 02:39:04;;;;;;;9.95;6.20;;;;;;;18.75;100.00;98695.56;5051662;28;20504;-82
2021/09/15 02:41:31;;;;;;;8.45;7.07;;;;;;;18.64;100.00;98679.97;5051487;28;20045;-82
2021/09/15 02:43:58;;;;;;;9.77;7.22;;;;;;;18.68;100.00;98683.88;5051548;28;20049;-82
2021/09/15 02:46:24;;;;;;;9.27;7.55;;;;;;;18.70;100.00;98692.75;5051607;28;20060;-82
2021/09/15 02:48:53;;;;;;;9.30;7.28;;;;;;;18.67;100.00;98690.50;5041181;28;20559;-81
2021/09/15 02:51:22;;;;;;;11.00;7.57;;;;;;;18.61;100.00;98683.22;5032637;28;20060;-82
2021/09/15 02:53:49;;;;;;;11.80;6.72;;;;;;;18.64;100.00;98679.97;5035002;28;20049;-82
2021/09/15 02:56:16;;;;;;;9.55;7.97;;;;;;;18.73;100.00;98693.06;5036798;28;20545;-82
2021/09/15 02:58:43;;;;;;;13.15;7.38;;;;;;;18.62;100.00;98671.94;5032955;28;20053;-82
2021/09/15 03:01:10;;;;;;;10.35;7.07;;;;;;;18.63;100.00;98692.91;5036449;28;20509;-82
2021/09/15 03:03:37;;;;;;;10.30;7.20;;;;;;;18.51;100.00;98684.72;5035637;28;20052;-82
2021/09/15 03:06:06;;;;;;;12.65;7.38;;;;;;;18.51;100.00;98686.63;5041661;28;20049;-82
2021/09/15 03:08:32;;;;;;;14.43;7.75;;;;;;;18.61;100.00;98684.06;5055005;28;20519;-82
2021/09/15 03:10:59;;;;;;;10.13;7.35;;;;;;;18.49;100.00;98683.31;5053961;28;20055;-83
2021/09/15 03:13:26;;;;;;;7.97;7.13;;;;;;;18.50;100.00;98683.06;5035894;28;20482;-82
2021/09/15 03:15:53;;;;;;;10.48;7.25;;;;;;;18.41;100.00;98668.00;5038486;28;20050;-83
2021/09/15 03:18:20;;;;;;;11.38;7.63;;;;;;;18.34;100.00;98662.69;5035300;28;20516;-82
2021/09/15 03:20:54;;;;;;;11.85;7.30;;;;;;;18.31;100.00;98676.94;5036866;28;20044;-82
2021/09/15 03:23:22;;;;;;;13.90;8.02;;;;;;;18.45;100.00;98687.63;5034253;28;20099;-83
2021/09/15 03:25:49;;;;;;;11.02;8.30;;;;;;;18.42;100.00;98685.38;5035417;28;20100;-82
2021/09/15 03:28:16;;;;;;;10.68;7.60;;;;;;;18.38;100.00;98669.38;5036470;28;20430;-82
2021/09/15 03:30:45;;;;;;;11.85;8.32;;;;;;;18.28;100.00;98674.69;5036278;28;20490;-82
2021/09/15 03:33:12;;;;;;;11.35;7.15;;;;;;;18.36;100.00;98682.50;5033914;28;20390;-82
2021/09/15 03:35:38;;;;;;;11.95;6.85;;;;;;;18.43;100.00;98684.28;5033605;28;20056;-82
2021/09/15 03:38:05;;;;;;;8.88;6.70;;;;;;;18.44;100.00;98672.19;5034938;28;20045;-83
2021/09/15 03:40:34;;;;;;;10.35;7.47;;;;;;;18.27;100.00;98667.50;5035206;28;20041;-82
2021/09/15 03:43:01;;;;;;;11.38;7.53;;;;;;;18.19;100.00;98654.97;5047057;28;20052;-83
2021/09/15 03:45:28;;;;;;;7.57;6.57;;;;;;;18.32;100.00;98675.00;5045007;28;20445;-83
2021/09/15 03:47:55;;;;;;;10.10;7.22;;;;;;;18.19;100.00;98667.91;5034666;28;20049;-82
2021/09/15 03:50:22;;;;;;;8.95;7.38;;;;;;;18.23;100.00;98677.31;5034333;28;20049;-83
2021/09/15 03:52:48;;;;;;;8.43;7.25;;;;;;;18.28;100.00;98665.59;5034731;28;20045;-82
2021/09/15 03:55:15;;;;;;;9.15;8.00;;;;;;;18.39;100.00;98661.94;5034699;28;20056;-82
2021/09/15 03:57:43;;;;;;;11.95;7.80;;;;;;;18.38;100.00;98671.25;5043121;28;20053;-83
2021/09/15 04:00:12;;;;;;;10.10;7.35;;;;;;;18.39;100.00;98670.19;5054052;28;20049;-83
2021/09/15 04:02:39;;;;;;;8.40;7.45;;;;;;;18.33;100.00;98672.00;5037401;28;20073;-83
2021/09/15 04:05:07;;;;;;;10.48;7.15;;;;;;;18.32;100.00;98686.88;5035578;28;20045;-83
2021/09/15 04:07:34;;;;;;;13.05;7.80;;;;;;;18.25;100.00;98666.09;5035965;28;20068;-82
2021/09/15 04:10:01;;;;;;;9.95;7.88;;;;;;;18.14;100.00;98667.78;5033632;28;20052;-84
2021/09/15 04:12:28;;;;;;;9.32;7.85;;;;;;;18.13;100.00;98671.66;5035126;28;20045;-83
2021/09/15 04:14:56;;;;;;;11.45;7.78;;;;;;;18.32;100.00;98683.25;5035238;28;20052;-85
2021/09/15 04:17:23;;;;;;;10.40;7.57;;;;;;;18.29;100.00;98689.25;5039516;28;20099;-85
2021/09/15 04:19:52;;;;;;;10.48;6.93;;;;;;;18.30;100.00;98682.69;5036362;28;20049;-86
2021/09/15 04:22:20;;;;;;;11.82;7.75;;;;;;;18.18;100.00;98666.22;5037340;28;20106;-85
2021/09/15 04:33:02;;;;;;;9.35;7.63;;;;;;;18.40;100.00;98680.94;5040383;28;20079;-84
2021/09/15 04:35:30;;;;;;;17.88;8.00;;;;;;;18.14;100.00;98668.66;5029407;28;20077;-84
2021/09/15 04:37:57;;;;;;;10.10;7.43;;;;;;;18.28;100.00;98687.63;5045066;28;20088;-88
2021/09/15 04:40:24;;;;;;;15.32;9.38;;;;;;;18.26;100.00;98692.50;5040772;28;20079;-88
2021/09/15 04:42:53;;;;;;;15.70;8.27;;;;;;;18.13;100.00;98664.22;5034327;28;20080;-89
2021/09/15 04:45:21;;;;;;;21.45;8.38;;;;;;;18.25;100.00;98690.84;5034118;28;20041;-86
2021/09/15 04:47:48;;;;;;;11.93;9.20;;;;;;;18.18;100.00;98685.50;5038584;28;20098;-86
2021/09/15 04:50:16;;;;;;;15.95;8.20;;;;;;;18.10;100.00;98694.16;5053747;28;20045;-87
2021/09/15 04:52:43;;;;;;;10.07;7.85;;;;;;;18.13;100.00;98701.91;5053988;28;20057;-86
2021/09/15 04:55:10;;;;;;;11.43;8.00;;;;;;;18.20;100.00;98710.81;5041437;28;20046;-87
2021/09/15 04:57:37;;;;;;;16.23;7.93;;;;;;;18.03;100.00;98697.03;5033883;28;20136;-87
2021/09/15 05:00:05;;;;;;;16.50;9.00;;;;;;;18.02;100.00;98692.59;5033731;28;20045;-87
2021/09/15 05:02:33;;;;;;;15.52;7.70;;;;;;;18.12;100.00;98703.81;5037074;28;20060;-87
2021/09/15 05:05:00;;;;;;;10.27;7.80;;;;;;;18.03;100.00;98700.59;5035658;28;20049;-87
2021/09/15 05:07:27;;;;;;;9.43;7.43;;;;;;;18.20;100.00;98705.31;5054100;28;20493;-87
2021/09/15 05:09:54;;;;;;;14.63;7.20;;;;;;;18.28;100.00;98699.44;5053578;28;20501;-87
2021/09/15 05:12:21;;;;;;;11.45;7.93;;;;;;;18.25;100.00;98688.94;5053524;28;20463;-86
2021/09/15 05:14:47;;;;;;;9.85;7.50;;;;;;;18.21;100.00;98694.06;5052757;28;20083;-87
2021/09/15 05:17:15;;;;;;;10.27;7.88;;;;;;;18.10;100.00;98696.91;5053912;28;20413;-86
2021/09/15 05:19:43;;;;;;;13.85;8.30;;;;;;;18.13;100.00;98718.41;5053465;28;20053;-86
2021/09/15 05:22:10;;;;;;;11.82;8.18;;;;;;;18.21;100.00;98726.25;5035992;28;20071;-87
2021/09/15 05:24:37;;;;;;;16.35;8.50;;;;;;;18.16;100.00;98726.19;5033358;28;20053;-88
2021/09/15 05:27:05;;;;;;;15.85;8.30;;;;;;;18.12;100.00;98724.97;5033695;28;20060;-87
2021/09/15 05:29:31;;;;;;;13.65;8.65;;;;;;;18.13;100.00;98733.00;5038973;28;20049;-86
2021/09/15 05:31:58;;;;;;;15.65;8.88;;;;;;;18.13;100.00;98738.50;5052285;28;20464;-87
2021/09/15 05:34:25;;;;;;;10.27;7.95;;;;;;;18.14;100.00;98742.94;5052839;28;20049;-86
2021/09/15 05:36:53;;;;;;;14.15;8.57;;;;;;;18.19;100.00;98736.69;5052907;28;20463;-87
2021/09/15 05:39:20;;;;;;;15.30;8.68;;;;;;;18.20;100.00;98747.44;5042364;28;20049;-87
2021/09/15 05:41:47;;;;;;;17.95;9.18;;;;;;;18.18;100.00;98735.84;5037197;28;20512;-87
2021/09/15 05:44:14;;;;;;;14.40;8.30;;;;;;;18.21;100.00;98724.34;5031532;28;20416;-87
2021/09/15 05:46:41;;;;;;;12.45;7.72;;;;;;;18.24;100.00;98742.28;5035886;28;20044;-87
2021/09/15 05:49:08;;;;;;;11.75;6.78;;;;;;;18.32;100.00;98744.66;5052869;28;20420;-86
2021/09/15 05:51:35;;;;;;;15.50;6.70;;;;;;;18.29;100.00;98744.28;5043085;28;20042;-87
2021/09/15 05:54:04;;;;;;;14.15;6.07;;;;;;;18.34;100.00;98745.22;5043153;28;20337;-87
2021/09/15 05:56:34;;;;;;;13.37;7.03;;;;;;;18.41;100.00;98742.31;5040258;28;20136;-87
2021/09/15 05:59:00;;;;;;;10.05;6.18;;;;;;;18.48;100.00;98761.44;5050106;28;20049;-87
2021/09/15 06:01:30;;;;;;;8.75;7.03;;;;;;;18.49;100.00;98763.13;5052712;28;20167;-86
2021/09/15 06:03:57;;;;;;;14.15;6.43;;;;;;;18.49;100.00;98760.38;5046772;28;20057;-85
2021/09/15 06:06:25;;;;;;;11.85;6.68;;;;;;;18.48;100.00;98761.44;5049666;28;20057;-84
2021/09/15 06:08:52;;;;;;;8.88;6.30;;;;;;;18.47;100.00;98763.38;5052279;28;20055;-85
2021/09/15 06:11:20;;;;;;;12.85;6.43;;;;;;;18.56;100.00;98770.16;5045088;28;20060;-85
2021/09/15 06:13:47;;;;;;;24.83;10.95;;;;;;;18.46;100.00;98758.94;5052196;28;20114;-84
2021/09/15 06:16:14;;;;;;;14.48;7.20;;;;;;;18.44;100.00;98750.09;5051728;28;20131;-85
2021/09/15 06:18:40;;;;;;;15.70;8.77;;;;;;;18.41;100.00;98761.56;5037981;28;20072;-85
2021/09/15 06:21:07;;;;;;;27.75;8.80;;;;;;;18.32;100.00;98750.16;5039445;28;20313;-85
2021/09/15 06:23:36;;;;;;;14.82;7.47;;;;;;;18.47;100.00;98771.63;5051509;28;20102;-85
2021/09/15 06:26:03;;;;;;;71.82;16.63;;;;;;;18.38;100.00;98751.06;5052072;28;20151;-84
2021/09/15 06:28:33;;;;;;;16.42;8.77;;;;;;;18.37;100.00;98772.25;5032976;28;20057;-85
2021/09/15 06:31:01;;;;;;;10.98;7.85;;;;;;;18.32;100.00;98763.91;5031950;28;20077;-85
2021/09/15 06:33:28;;;;;;;12.07;7.00;;;;;;;18.27;100.00;98762.97;5014659;28;20053;-82
2021/09/15 06:35:55;;;;;;;10.02;6.43;;;;;;;18.40;100.00;98770.94;5031565;28;20119;-82
2021/09/15 06:38:22;;;;;;;14.60;7.70;;;;;;;18.35;100.00;98757.06;5034362;28;20114;-84
2021/09/15 06:40:49;;;;;;;22.50;10.13;;;;;;;18.42;100.00;98756.94;5051828;28;20049;-84
2021/09/15 06:43:15;;;;;;;12.40;7.18;;;;;;;18.46;100.00;98758.94;5051657;28;20081;-84
2021/09/15 06:45:44;;;;;;;11.43;6.88;;;;;;;18.45;100.00;98761.94;5040750;28;20049;-84
2021/09/15 06:48:10;;;;;;;10.43;6.68;;;;;;;18.52;100.00;98763.47;5036112;28;20151;-85
2021/09/15 06:50:37;;;;;;;10.60;6.70;;;;;;;18.56;100.00;98766.53;5035429;28;20131;-84
2021/09/15 06:53:04;;;;;;;9.95;6.22;;;;;;;18.53;100.00;98754.13;5035740;28;20494;-84
2021/09/15 06:55:30;;;;;;;10.13;6.70;;;;;;;18.54;100.00;98758.53;5051737;28;20081;-83
2021/09/15 06:57:57;;;;;;;11.75;6.63;;;;;;;18.60;100.00;98764.97;5055308;28;20087;-84
2021/09/15 07:00:24;;;;;;;10.77;7.13;;;;;;;18.57;100.00;98760.78;5054255;28;20522;-84
2021/09/15 07:02:52;;;;;;;11.93;6.78;;;;;;;18.54;100.00;98752.19;5054615;28;20103;-83
2021/09/15 07:05:19;;;;;;;10.43;6.38;;;;;;;18.58;100.00;98750.63;5055342;28;20052;-82
2021/09/15 07:07:46;;;;;;;36.75;12.90;;;;;;;18.62;100.00;98759.22;5055586;28;20075;-82
2021/09/15 07:10:14;;;;;;;98.68;22.67;;;;;;;18.69;100.00;98752.47;5055182;28;20045;-82
2021/09/15 07:12:40;;;;;;;35.22;13.55;;;;;;;18.74;100.00;98743.47;5054907;28;20386;-82
2021/09/15 07:15:09;;;;;;;14.43;8.05;;;;;;;18.88;100.00;98741.28;5054918;28;20045;-82
2021/09/15 07:17:38;;;;;;;11.60;7.03;;;;;;;18.91;100.00;98749.03;5055468;28;20111;-82
2021/09/15 07:20:07;;;;;;;16.05;7.22;;;;;;;18.83;100.00;98735.63;5044086;28;20053;-82
2021/09/15 07:22:34;;;;;;;12.75;6.82;;;;;;;18.78;100.00;98752.06;5042398;28;20103;-82
2021/09/15 07:25:01;;;;;;;10.50;6.93;;;;;;;18.77;100.00;98753.16;5034737;28;20485;-82
2021/09/15 07:27:27;;;;;;;11.00;6.63;;;;;;;18.74;100.00;98748.97;5035018;28;20053;-82
2021/09/15 07:29:54;;;;;;;13.95;7.03;;;;;;;18.79;100.00;98737.22;5035070;28;20057;-82
2021/09/15 07:32:21;;;;;;;10.70;7.13;;;;;;;18.54;100.00;98722.75;5034808;28;20099;-83
2021/09/15 07:34:48;;;;;;;20.27;7.97;;;;;;;18.60;100.00;98734.69;5034288;28;20042;-82
2021/09/15 07:37:17;;;;;;;36.30;12.73;;;;;;;18.55;100.00;98727.19;5049154;28;20102;-82
2021/09/15 07:39:44;;;;;;;12.05;7.40;;;;;;;18.56;100.00;98720.59;5055074;28;20056;-82
2021/09/15 07:42:11;;;;;;;15.00;7.70;;;;;;;18.66;100.00;98733.69;5044367;28;20050;-82
2021/09/15 07:44:38;;;;;;;18.00;7.47;;;;;;;18.60;100.00;98742.94;5051932;28;20045;-82
2021/09/15 07:47:04;;;;;;;17.13;8.38;;;;;;;18.56;100.00;98750.88;5054551;28;20497;-83
2021/09/15 07:49:31;;;;;;;13.05;7.13;;;;;;;18.58;100.00;98734.13;5054301;28;20103;-82
2021/09/15 07:51:58;;;;;;;14.93;6.60;;;;;;;18.46;100.00;98731.41;5054389;28;20574;-82
2021/09/15 07:54:27;;;;;;;12.02;5.80;;;;;;;18.33;100.00;98743.53;5052910;28;20082;-82
2021/09/15 07:56:54;;;;;;;8.35;6.32;;;;;;;18.25;100.00;98757.72;5054159;28;20409;-82
2021/09/15 07:59:21;;;;;;;18.27;8.40;;;;;;;18.38;100.00;98778.59;5043969;28;20103;-82
2021/09/15 08:01:49;;;;;;;12.80;6.95;;;;;;;18.44;100.00;98763.88;5034708;28;20123;-82
2021/09/15 08:04:16;;;;;;;14.43;7.05;;;;;;;18.49;100.00;98780.47;5034643;28;20071;-83
2021/09/15 08:06:42;;;;;;;24.42;8.98;;;;;;;18.51;100.00;98766.47;5046168;28;20083;-82
2021/09/15 08:09:09;;;;;;;11.23;7.05;;;;;;;18.54;100.00;98739.25;5054314;28;20048;-82
2021/09/15 08:11:37;;;;;;;12.77;6.20;;;;;;;18.56;100.00;98739.88;5048545;28;20049;-83
2021/09/15 08:14:04;;;;;;;12.77;7.30;;;;;;;18.68;100.00;98766.47;5034483;28;20127;-83
2021/09/15 08:16:31;;;;;;;16.42;7.88;;;;;;;18.58;100.00;98754.22;5042129;28;20444;-83
2021/09/15 08:19:00;;;;;;;11.65;6.95;;;;;;;18.64;100.00;98752.38;5054109;28;20103;-83
2021/09/15 08:21:30;;;;;;;11.88;5.22;;;;;;;18.80;100.00;98745.22;5054054;28;20400;-83
2021/09/15 08:23:59;;;;;;;8.35;5.28;;;;;;;18.91;100.00;98747.09;5053857;28;20052;-83
2021/09/15 08:26:26;;;;;;;6.22;5.40;;;;;;;18.85;100.00;98764.63;5053237;28;20075;-83
2021/09/15 08:28:54;;;;;;;13.48;5.63;;;;;;;18.82;100.00;98770.59;5053801;28;20045;-83
2021/09/15 08:31:21;;;;;;;12.00;5.88;;;;;;;18.91;100.00;98782.91;5053152;28;20099;-82
2021/09/15 08:33:48;;;;;;;16.63;6.50;;;;;;;18.91;100.00;98782.91;5043441;28;20056;-83
2021/09/15 08:36:14;;;;;;;21.98;8.27;;;;;;;18.96;100.00;98779.41;5034861;28;20049;-82
2021/09/15 08:38:41;;;;;;;18.73;7.85;;;;;;;19.05;100.00;98788.09;5035086;28;20084;-83
2021/09/15 08:41:08;;;;;;;14.63;5.60;;;;;;;18.98;100.00;98766.22;5050162;28;20049;-83
2021/09/15 08:43:37;;;;;;;10.77;6.30;;;;;;;19.02;100.00;98777.59;5035974;28;20045;-83
2021/09/15 08:46:06;;;;;;;6.57;5.05;;;;;;;18.99;100.00;98787.16;5043688;28;20049;-83
2021/09/15 08:48:38;;;;;;;7.40;5.35;;;;;;;19.04;100.00;98792.75;5036908;28;20049;-83
2021/09/15 08:51:05;;;;;;;7.60;5.28;;;;;;;19.02;100.00;98810.63;5053314;28;20555;-83
2021/09/15 08:53:32;;;;;;;12.95;5.80;;;;;;;19.07;100.00;98819.84;5053395;28;20057;-82
2021/09/15 08:55:59;;;;;;;8.77;5.97;;;;;;;18.98;100.00;98809.47;5035203;28;20064;-83
2021/09/15 08:58:25;;;;;;;11.85;5.63;;;;;;;19.03;100.00;98806.78;5052916;28;20052;-83
2021/09/15 09:01:08;;;;;;;16.63;6.32;;;;;;;19.09;100.00;98811.31;5053285;28;20049;-83
2021/09/15 09:03:36;;;;;;;19.73;7.43;;;;;;;19.04;100.00;98811.22;5053191;28;20053;-83
2021/09/15 09:06:09;;;;;;;24.08;8.70;;;;;;;18.99;100.00;98814.72;5047405;28;20065;-82
2021/09/15 09:08:42;;;;;;;21.23;7.22;;;;;;;18.93;100.00;98799.19;5035763;28;20087;-83
2021/09/15 09:11:09;;;;;;;12.07;6.00;;;;;;;19.00;100.00;98802.63;5037132;28;20069;-83
2021/09/15 09:13:50;;;;;;;13.85;5.63;;;;;;;19.01;100.00;98798.75;5035324;28;20045;-83
2021/09/15 09:16:21;;;;;;;15.38;6.93;;;;;;;19.17;100.00;98797.13;5031817;28;20362;-82
2021/09/15 09:19:04;;;;;;;24.25;8.70;;;;;;;19.18;100.00;98796.03;5033973;28;20067;-83
2021/09/15 09:21:34;;;;;;;20.40;8.32;;;;;;;19.27;100.00;98791.78;5033343;28;22821;-82
2021/09/15 09:24:02;;;;;;;;;;;;;;;19.51;100.00;98805.38;5049559;28;20062;-83
2021/09/15 09:26:53;;;;;;;9.63;5.07;;;;;;;19.63;100.00;98792.31;5052589;28;19966;-83
2021/09/15 09:29:22;;;;;;;11.30;6.30;;;;;;;19.84;100.00;98798.16;5047125;28;20053;-83
2021/09/15 09:32:05;;;;;;;9.38;5.35;;;;;;;19.81;100.00;98795.91;5052442;28;20036;-83
2021/09/15 09:34:41;;;;;;;9.90;6.22;;;;;;;19.83;100.00;98787.38;5042593;28;20057;-83
2021/09/15 09:37:12;;;;;;;12.60;5.90;;;;;;;19.84;100.00;98789.88;5033798;28;20560;-83
2021/09/15 09:39:43;;;;;;;9.70;4.95;;;;;;;19.83;100.00;98790.97;5037364;28;20049;-83
2021/09/15 09:42:38;;;;;;;13.00;5.40;;;;;;;19.68;100.00;98790.75;5037708;28;20049;-83
2021/09/15 09:45:17;;;;;;;10.93;5.18;;;;;;;19.79;100.00;98798.09;5044599;28;20056;-83
2021/09/15 09:47:46;;;;;;;8.57;4.20;;;;;;;19.63;100.00;98797.00;5052692;28;20048;-83
2021/09/15 09:50:18;;;;;;;8.68;5.10;;;;;;;19.59;100.00;98810.47;5052294;28;20447;-83
2021/09/15 09:52:59;;;;;;;9.82;5.10;;;;;;;19.56;100.00;98794.41;5052525;28;20443;-83
2021/09/15 09:55:26;;;;;;;8.52;5.38;;;;;;;19.60;100.00;98800.25;5051969;28;20063;-83
2021/09/15 09:57:55;;;;;;;9.70;5.40;;;;;;;19.46;100.00;98786.00;5052197;28;20049;-84
2021/09/15 10:00:23;;;;;;;7.82;4.93;;;;;;;19.44;100.00;98780.72;5049224;28;20063;-84
2021/09/15 10:02:58;;;;;;;10.75;5.82;;;;;;;19.57;100.00;98807.13;5033945;28;20041;-84
2021/09/15 10:05:25;;;;;;;8.48;4.80;;;;;;;19.64;100.00;98805.00;5032325;28;20049;-84
2021/09/15 10:07:55;;;;;;;8.75;4.30;;;;;;;19.63;100.00;98805.25;5037361;28;20493;-84
2021/09/15 10:10:22;;;;;;;;;;;;;;;19.59;100.00;98804.13;5052541;28;20052;-84
2021/09/15 10:12:53;;;;;;;5.75;4.30;;;;;;;19.56;100.00;98785.31;5052008;28;20341;-84
2021/09/15 10:15:20;;;;;;;11.27;4.45;;;;;;;19.61;100.00;98802.75;5052045;28;20485;-84
2021/09/15 10:17:50;;;;;;;11.23;4.85;;;;;;;19.71;100.00;98801.25;5051406;28;20041;-84
2021/09/15 10:20:22;;;;;;;9.90;4.15;;;;;;;19.82;100.00;98797.56;5052040;28;20122;-83
2021/09/15 10:22:49;;;;;;;6.13;3.90;;;;;;;19.86;100.00;98807.00;5051861;28;20056;-84
2021/09/15 10:25:17;;;;;;;7.78;4.28;;;;;;;20.01;100.00;98800.03;5050930;28;20053;-84
2021/09/15 10:28:02;;;;;;;9.98;4.50;;;;;;;20.12;100.00;98794.38;5051952;28;20041;-84
2021/09/15 10:30:56;;;;;;;6.78;4.05;;;;;;;20.23;100.00;98786.25;5051774;28;20049;-84
2021/09/15 10:33:50;;;;;;;7.20;3.72;;;;;;;20.39;100.00;98801.88;5016556;28;20092;-84
2021/09/15 10:36:39;;;;;;;5.18;3.88;;;;;;;20.47;100.00;98795.94;5051369;28;20477;-84
2021/09/15 10:39:09;;;;;;;11.10;3.55;;;;;;;20.55;100.00;98794.63;5047856;28;20053;-84
2021/09/15 10:41:59;;;;;;;7.90;4.03;;;;;;;20.86;96.48;98801.31;5033685;28;20417;-84
2021/09/15 10:44:27;;;;;;;8.23;3.33;;;;;;;20.96;100.00;98778.47;5032269;28;20152;-84
2021/09/15 10:47:15;;;;;;;5.60;3.42;;;;;;;21.03;98.45;98775.50;5031981;28;20057;-84
2021/09/15 10:49:45;;;;;;;11.57;3.63;;;;;;;21.45;96.62;98780.25;5031721;28;20060;-84
2021/09/15 10:52:30;;;;;;;8.63;3.58;;;;;;;21.51;95.14;98770.09;5043449;28;20076;-84
2021/09/15 10:55:00;;;;;;;8.38;3.35;;;;;;;21.60;95.96;98770.44;5051392;28;20057;-84
2021/09/15 10:57:43;;;;;;;3.85;3.10;;;;;;;21.71;93.78;98795.13;5051950;28;20045;-84
2021/09/15 11:00:25;;;;;;;5.43;3.47;;;;;;;21.66;96.48;98780.41;5051854;28;20052;-84
2021/09/15 11:02:52;;;;;;;5.22;2.97;;;;;;;21.75;97.12;98787.09;5051570;28;20049;-84
2021/09/15 11:05:43;;;;;;;7.25;3.72;;;;;;;21.97;97.28;98784.19;5051175;28;20485;-83
2021/09/15 11:08:20;;;;;;;7.53;3.58;;;;;;;21.94;93.30;98770.06;5045274;28;20041;-84
2021/09/15 11:10:47;;;;;;;7.88;3.17;;;;;;;21.71;92.17;98774.94;5029112;28;20528;-84
2021/09/15 11:13:15;;;;;;;8.20;3.70;;;;;;;21.70;97.85;98787.09;5030201;28;20104;-84
2021/09/15 11:15:44;;;;;;;7.43;4.00;;;;;;;21.78;94.87;98786.56;5030893;28;20049;-84
2021/09/15 11:18:22;;;;;;;7.50;3.20;;;;;;;21.54;91.96;98769.56;5031004;28;20548;-84
2021/09/15 11:20:54;;;;;;;6.28;3.13;;;;;;;21.50;94.20;98793.31;5031740;28;20056;-84
2021/09/15 11:23:25;;;;;;;8.10;3.42;;;;;;;21.47;96.42;98778.06;5031806;28;20099;-84
2021/09/15 11:25:54;;;;;;;4.72;3.58;;;;;;;21.60;96.79;98775.97;5031390;28;20071;-84
2021/09/15 11:28:23;;;;;;;11.13;3.75;;;;;;;21.73;98.14;98778.25;5031579;28;20485;-86
2021/09/15 11:31:01;;;;;;;8.25;3.33;;;;;;;21.75;94.32;98770.50;5049544;28;20416;-85
2021/09/15 11:33:29;;;;;;;5.82;3.40;;;;;;;21.75;95.51;98762.22;5055176;28;20056;-85
2021/09/15 11:35:58;;;;;;;6.55;3.33;;;;;;;21.75;94.35;98773.28;5052000;28;20049;-85
2021/09/15 11:38:28;;;;;;;5.85;4.13;;;;;;;21.74;97.34;98760.56;5035023;28;20053;-85